sensor_id;sensor_type;location;lat;lon;timestamp;P1;durP1;ratioP1;P2;durP2;ratioP2
19609;SDS011;9952;47.122;-1.638;2022-11-06T00:00:44;10.87;;;1.40;;
19609;SDS011;9952;47.122;-1.638;2022-11-06T00:05:26;8.03;;;1.00;;
19609;SDS011;9952;47.122;-1.638;2022-11-06T00:10:28;6.10;;;1.10;;
19609;SDS011;9952;47.122;-1.638;2022-11-06T00:15:10;5.17;;;1.10;;
19609;SDS011;9952;47.122;-1.638;2022-11-06T00:19:51;9.37;;;1.30;;
19609;SDS011;9952;47.122;-1.638;2022-11-06T00:24:31;10.00;;;2.27;;
19609;SDS011;9952;47.122;-1.638;2022-11-06T00:29:13;8.60;;;1.67;;
19609;SDS011;9952;47.122;-1.638;2022-11-06T00:33:55;7.53;;;1.50;;
19609;SDS011;9952;47.122;-1.638;2022-11-06T00:38:37;6.07;;;2.37;;
19609;SDS011;9952;47.122;-1.638;2022-11-06T00:43:18;6.57;;;1.40;;
19609;SDS011;9952;47.122;-1.638;2022-11-06T00:47:58;12.00;;;1.97;;
19609;SDS011;9952;47.122;-1.638;2022-11-06T00:58:09;8.67;;;1.80;;
19609;SDS011;9952;47.122;-1.638;2022-11-06T01:02:50;12.47;;;1.40;;
19609;SDS011;9952;47.122;-1.638;2022-11-06T01:07:31;7.67;;;1.63;;
19609;SDS011;9952;47.122;-1.638;2022-11-06T01:12:12;11.37;;;1.50;;
19609;SDS011;9952;47.122;-1.638;2022-11-06T01:16:52;10.20;;;1.47;;
19609;SDS011;9952;47.122;-1.638;2022-11-06T01:21:34;6.47;;;1.20;;
19609;SDS011;9952;47.122;-1.638;2022-11-06T01:26:17;6.90;;;1.33;;
19609;SDS011;9952;47.122;-1.638;2022-11-06T01:31:02;12.00;;;1.60;;
19609;SDS011;9952;47.122;-1.638;2022-11-06T01:35:46;13.30;;;2.00;;
19609;SDS011;9952;47.122;-1.638;2022-11-06T01:40:28;8.87;;;1.73;;
19609;SDS011;9952;47.122;-1.638;2022-11-06T01:50:16;7.80;;;1.33;;
19609;SDS011;9952;47.122;-1.638;2022-11-06T01:55:03;10.60;;;2.23;;
19609;SDS011;9952;47.122;-1.638;2022-11-06T01:59:50;10.37;;;2.10;;
19609;SDS011;9952;47.122;-1.638;2022-11-06T02:04:36;11.13;;;1.97;;
19609;SDS011;9952;47.122;-1.638;2022-11-06T02:09:21;8.80;;;1.70;;
19609;SDS011;9952;47.122;-1.638;2022-11-06T02:14:08;9.43;;;1.43;;
19609;SDS011;9952;47.122;-1.638;2022-11-06T02:29:08;13.53;;;2.27;;
19609;SDS011;9952;47.122;-1.638;2022-11-06T02:33:57;16.37;;;2.30;;
19609;SDS011;9952;47.122;-1.638;2022-11-06T02:38:44;11.63;;;1.73;;
19609;SDS011;9952;47.122;-1.638;2022-11-06T02:43:30;15.10;;;2.17;;
19609;SDS011;9952;47.122;-1.638;2022-11-06T02:48:16;15.63;;;2.13;;
19609;SDS011;9952;47.122;-1.638;2022-11-06T02:53:03;15.07;;;2.30;;
19609;SDS011;9952;47.122;-1.638;2022-11-06T02:57:48;14.10;;;2.40;;
19609;SDS011;9952;47.122;-1.638;2022-11-06T03:02:36;8.80;;;2.00;;
19609;SDS011;9952;47.122;-1.638;2022-11-06T03:12:15;6.70;;;1.97;;
19609;SDS011;9952;47.122;-1.638;2022-11-06T03:17:17;10.17;;;2.10;;
19609;SDS011;9952;47.122;-1.638;2022-11-06T03:22:07;13.10;;;2.07;;
19609;SDS011;9952;47.122;-1.638;2022-11-06T03:26:49;7.43;;;1.90;;
19609;SDS011;9952;47.122;-1.638;2022-11-06T03:31:33;12.03;;;2.37;;
19609;SDS011;9952;47.122;-1.638;2022-11-06T03:36:20;7.80;;;1.70;;
19609;SDS011;9952;47.122;-1.638;2022-11-06T03:41:40;7.93;;;1.50;;
19609;SDS011;9952;47.122;-1.638;2022-11-06T03:46:18;7.27;;;1.97;;
19609;SDS011;9952;47.122;-1.638;2022-11-06T03:51:20;11.53;;;1.73;;
19609;SDS011;9952;47.122;-1.638;2022-11-06T03:56:09;11.97;;;1.87;;
19609;SDS011;9952;47.122;-1.638;2022-11-06T04:00:55;11.77;;;2.23;;
19609;SDS011;9952;47.122;-1.638;2022-11-06T04:05:40;7.13;;;1.97;;
19609;SDS011;9952;47.122;-1.638;2022-11-06T04:10:25;13.00;;;1.93;;
19609;SDS011;9952;47.122;-1.638;2022-11-06T04:15:24;14.40;;;2.07;;
19609;SDS011;9952;47.122;-1.638;2022-11-06T04:20:08;9.90;;;2.10;;
19609;SDS011;9952;47.122;-1.638;2022-11-06T04:36:18;14.73;;;1.63;;
19609;SDS011;9952;47.122;-1.638;2022-11-06T04:45:59;8.53;;;1.47;;
19609;SDS011;9952;47.122;-1.638;2022-11-06T04:50:44;12.57;;;1.67;;
19609;SDS011;9952;47.122;-1.638;2022-11-06T04:55:29;9.67;;;2.17;;
19609;SDS011;9952;47.122;-1.638;2022-11-06T05:00:13;5.30;;;1.93;;
19609;SDS011;9952;47.122;-1.638;2022-11-06T05:04:55;6.37;;;1.63;;
19609;SDS011;9952;47.122;-1.638;2022-11-06T05:09:35;7.40;;;1.50;;
19609;SDS011;9952;47.122;-1.638;2022-11-06T05:14:16;7.90;;;1.70;;
19609;SDS011;9952;47.122;-1.638;2022-11-06T05:18:57;9.13;;;1.70;;
19609;SDS011;9952;47.122;-1.638;2022-11-06T05:23:37;10.47;;;1.77;;
19609;SDS011;9952;47.122;-1.638;2022-11-06T05:28:18;11.77;;;1.87;;
19609;SDS011;9952;47.122;-1.638;2022-11-06T05:32:59;12.80;;;1.90;;
19609;SDS011;9952;47.122;-1.638;2022-11-06T05:37:40;11.30;;;2.10;;
19609;SDS011;9952;47.122;-1.638;2022-11-06T05:42:21;9.17;;;1.80;;
19609;SDS011;9952;47.122;-1.638;2022-11-06T05:47:02;9.10;;;1.97;;
19609;SDS011;9952;47.122;-1.638;2022-11-06T05:51:42;12.90;;;2.10;;
19609;SDS011;9952;47.122;-1.638;2022-11-06T05:56:23;12.83;;;2.00;;
19609;SDS011;9952;47.122;-1.638;2022-11-06T06:01:04;10.33;;;1.90;;
19609;SDS011;9952;47.122;-1.638;2022-11-06T06:05:45;8.00;;;2.07;;
19609;SDS011;9952;47.122;-1.638;2022-11-06T06:10:26;7.17;;;1.80;;
19609;SDS011;9952;47.122;-1.638;2022-11-06T06:15:07;16.03;;;2.53;;
19609;SDS011;9952;47.122;-1.638;2022-11-06T06:19:48;9.97;;;2.27;;
19609;SDS011;9952;47.122;-1.638;2022-11-06T06:24:29;12.57;;;2.47;;
19609;SDS011;9952;47.122;-1.638;2022-11-06T06:29:10;16.63;;;3.30;;
19609;SDS011;9952;47.122;-1.638;2022-11-06T06:33:51;16.80;;;2.63;;
19609;SDS011;9952;47.122;-1.638;2022-11-06T06:38:31;9.20;;;2.40;;
19609;SDS011;9952;47.122;-1.638;2022-11-06T06:43:12;15.97;;;3.03;;
19609;SDS011;9952;47.122;-1.638;2022-11-06T06:47:53;10.23;;;3.17;;
19609;SDS011;9952;47.122;-1.638;2022-11-06T06:52:34;13.67;;;3.67;;
19609;SDS011;9952;47.122;-1.638;2022-11-06T06:57:14;14.73;;;3.23;;
19609;SDS011;9952;47.122;-1.638;2022-11-06T07:01:55;13.93;;;2.93;;
19609;SDS011;9952;47.122;-1.638;2022-11-06T07:06:36;13.37;;;3.10;;
19609;SDS011;9952;47.122;-1.638;2022-11-06T07:11:17;10.10;;;3.03;;
19609;SDS011;9952;47.122;-1.638;2022-11-06T07:15:58;13.73;;;2.83;;
19609;SDS011;9952;47.122;-1.638;2022-11-06T07:20:41;11.63;;;3.17;;
19609;SDS011;9952;47.122;-1.638;2022-11-06T07:25:22;14.83;;;3.43;;
19609;SDS011;9952;47.122;-1.638;2022-11-06T07:30:04;15.60;;;3.47;;
19609;SDS011;9952;47.122;-1.638;2022-11-06T07:34:45;11.20;;;3.00;;
19609;SDS011;9952;47.122;-1.638;2022-11-06T07:39:26;13.97;;;2.93;;
19609;SDS011;9952;47.122;-1.638;2022-11-06T07:44:06;19.67;;;3.37;;
19609;SDS011;9952;47.122;-1.638;2022-11-06T07:48:47;11.33;;;3.77;;
19609;SDS011;9952;47.122;-1.638;2022-11-06T07:53:29;12.43;;;3.13;;
19609;SDS011;9952;47.122;-1.638;2022-11-06T07:58:10;15.37;;;3.27;;
19609;SDS011;9952;47.122;-1.638;2022-11-06T08:02:51;9.67;;;2.10;;
19609;SDS011;9952;47.122;-1.638;2022-11-06T08:07:32;9.47;;;2.70;;
19609;SDS011;9952;47.122;-1.638;2022-11-06T08:12:13;6.73;;;2.00;;
19609;SDS011;9952;47.122;-1.638;2022-11-06T08:16:54;9.53;;;2.33;;
19609;SDS011;9952;47.122;-1.638;2022-11-06T08:21:36;6.87;;;1.70;;
19609;SDS011;9952;47.122;-1.638;2022-11-06T08:31:34;6.77;;;2.00;;
19609;SDS011;9952;47.122;-1.638;2022-11-06T08:41:40;7.00;;;1.43;;
19609;SDS011;9952;47.122;-1.638;2022-11-06T08:46:21;6.57;;;1.30;;
19609;SDS011;9952;47.122;-1.638;2022-11-06T08:56:23;5.80;;;1.43;;
19609;SDS011;9952;47.122;-1.638;2022-11-06T09:01:04;3.80;;;1.40;;
19609;SDS011;9952;47.122;-1.638;2022-11-06T09:05:45;3.23;;;1.20;;
19609;SDS011;9952;47.122;-1.638;2022-11-06T09:10:26;4.53;;;1.10;;
19609;SDS011;9952;47.122;-1.638;2022-11-06T09:15:08;2.30;;;1.10;;
19609;SDS011;9952;47.122;-1.638;2022-11-06T09:19:49;1.30;;;1.00;;
19609;SDS011;9952;47.122;-1.638;2022-11-06T09:24:30;4.97;;;1.20;;
19609;SDS011;9952;47.122;-1.638;2022-11-06T09:29:11;4.10;;;1.30;;
19609;SDS011;9952;47.122;-1.638;2022-11-06T09:33:52;2.20;;;1.03;;
19609;SDS011;9952;47.122;-1.638;2022-11-06T09:38:48;2.83;;;0.80;;
19609;SDS011;9952;47.122;-1.638;2022-11-06T09:48:29;5.60;;;2.10;;
19609;SDS011;9952;47.122;-1.638;2022-11-06T09:53:20;4.23;;;1.07;;
19609;SDS011;9952;47.122;-1.638;2022-11-06T10:02:54;4.43;;;1.07;;
19609;SDS011;9952;47.122;-1.638;2022-11-06T10:07:39;5.77;;;1.00;;
19609;SDS011;9952;47.122;-1.638;2022-11-06T10:22:40;12.03;;;1.47;;
19609;SDS011;9952;47.122;-1.638;2022-11-06T10:33:53;10.50;;;1.57;;
19609;SDS011;9952;47.122;-1.638;2022-11-06T10:43:44;11.03;;;2.27;;
19609;SDS011;9952;47.122;-1.638;2022-11-06T10:48:34;9.53;;;1.90;;
19609;SDS011;9952;47.122;-1.638;2022-11-06T10:58:18;11.90;;;2.00;;
19609;SDS011;9952;47.122;-1.638;2022-11-06T11:03:04;9.70;;;2.97;;
19609;SDS011;9952;47.122;-1.638;2022-11-06T11:07:50;13.70;;;1.87;;
19609;SDS011;9952;47.122;-1.638;2022-11-06T11:12:31;18.23;;;2.57;;
19609;SDS011;9952;47.122;-1.638;2022-11-06T11:17:18;15.20;;;2.77;;
19609;SDS011;9952;47.122;-1.638;2022-11-06T11:26:45;26.77;;;3.70;;
19609;SDS011;9952;47.122;-1.638;2022-11-06T11:31:29;17.37;;;2.53;;
19609;SDS011;9952;47.122;-1.638;2022-11-06T11:36:13;22.00;;;3.90;;
19609;SDS011;9952;47.122;-1.638;2022-11-06T11:41:08;22.00;;;2.80;;
19609;SDS011;9952;47.122;-1.638;2022-11-06T11:50:48;18.60;;;3.13;;
19609;SDS011;9952;47.122;-1.638;2022-11-06T11:55:29;25.23;;;3.27;;
19609;SDS011;9952;47.122;-1.638;2022-11-06T12:00:19;18.80;;;2.97;;
19609;SDS011;9952;47.122;-1.638;2022-11-06T12:05:04;17.37;;;2.83;;
19609;SDS011;9952;47.122;-1.638;2022-11-06T12:09:49;19.70;;;3.10;;
19609;SDS011;9952;47.122;-1.638;2022-11-06T12:14:34;9.63;;;1.87;;
19609;SDS011;9952;47.122;-1.638;2022-11-06T12:19:17;22.33;;;2.57;;
19609;SDS011;9952;47.122;-1.638;2022-11-06T12:24:11;12.00;;;2.37;;
19609;SDS011;9952;47.122;-1.638;2022-11-06T12:29:01;12.07;;;1.90;;
19609;SDS011;9952;47.122;-1.638;2022-11-06T12:34:13;20.83;;;2.77;;
19609;SDS011;9952;47.122;-1.638;2022-11-06T12:39:17;13.93;;;2.93;;
19609;SDS011;9952;47.122;-1.638;2022-11-06T12:44:02;16.70;;;2.40;;
19609;SDS011;9952;47.122;-1.638;2022-11-06T12:49:21;13.30;;;2.73;;
19609;SDS011;9952;47.122;-1.638;2022-11-06T13:04:27;18.13;;;2.63;;
19609;SDS011;9952;47.122;-1.638;2022-11-06T13:09:45;12.87;;;2.30;;
19609;SDS011;9952;47.122;-1.638;2022-11-06T13:29:20;14.77;;;2.43;;
19609;SDS011;9952;47.122;-1.638;2022-11-06T13:34:03;16.17;;;1.67;;
19609;SDS011;9952;47.122;-1.638;2022-11-06T13:38:57;9.60;;;2.17;;
19609;SDS011;9952;47.122;-1.638;2022-11-06T13:43:44;13.67;;;1.90;;
19609;SDS011;9952;47.122;-1.638;2022-11-06T13:53:47;17.27;;;2.30;;
19609;SDS011;9952;47.122;-1.638;2022-11-06T13:58:57;16.60;;;2.73;;
19609;SDS011;9952;47.122;-1.638;2022-11-06T14:09:21;20.93;;;3.10;;
19609;SDS011;9952;47.122;-1.638;2022-11-06T14:19:11;17.90;;;3.13;;
19609;SDS011;9952;47.122;-1.638;2022-11-06T14:34:33;16.30;;;2.50;;
19609;SDS011;9952;47.122;-1.638;2022-11-06T14:39:14;17.67;;;2.47;;
19609;SDS011;9952;47.122;-1.638;2022-11-06T14:43:55;17.73;;;2.50;;
19609;SDS011;9952;47.122;-1.638;2022-11-06T14:48:38;20.57;;;2.57;;
19609;SDS011;9952;47.122;-1.638;2022-11-06T14:53:24;20.90;;;2.77;;
19609;SDS011;9952;47.122;-1.638;2022-11-06T14:58:18;15.23;;;2.33;;
19609;SDS011;9952;47.122;-1.638;2022-11-06T15:03:04;28.87;;;3.70;;
19609;SDS011;9952;47.122;-1.638;2022-11-06T15:07:56;17.47;;;2.70;;
19609;SDS011;9952;47.122;-1.638;2022-11-06T15:17:44;17.60;;;3.00;;
19609;SDS011;9952;47.122;-1.638;2022-11-06T15:22:32;24.93;;;4.23;;
19609;SDS011;9952;47.122;-1.638;2022-11-06T15:27:20;16.73;;;3.17;;
19609;SDS011;9952;47.122;-1.638;2022-11-06T15:32:10;26.23;;;3.50;;
19609;SDS011;9952;47.122;-1.638;2022-11-06T15:36:55;19.23;;;2.90;;
19609;SDS011;9952;47.122;-1.638;2022-11-06T15:41:43;25.10;;;3.50;;
19609;SDS011;9952;47.122;-1.638;2022-11-06T15:46:24;19.07;;;3.20;;
19609;SDS011;9952;47.122;-1.638;2022-11-06T15:51:25;26.70;;;3.93;;
19609;SDS011;9952;47.122;-1.638;2022-11-06T15:56:07;22.67;;;3.50;;
19609;SDS011;9952;47.122;-1.638;2022-11-06T16:00:48;25.87;;;4.10;;
19609;SDS011;9952;47.122;-1.638;2022-11-06T16:05:31;24.60;;;3.17;;
19609;SDS011;9952;47.122;-1.638;2022-11-06T16:10:14;26.50;;;3.63;;
19609;SDS011;9952;47.122;-1.638;2022-11-06T16:14:57;24.50;;;4.53;;
19609;SDS011;9952;47.122;-1.638;2022-11-06T16:19:38;26.53;;;3.27;;
19609;SDS011;9952;47.122;-1.638;2022-11-06T16:24:19;25.50;;;3.67;;
19609;SDS011;9952;47.122;-1.638;2022-11-06T16:29:00;28.40;;;3.93;;
19609;SDS011;9952;47.122;-1.638;2022-11-06T16:33:56;17.67;;;2.57;;
19609;SDS011;9952;47.122;-1.638;2022-11-06T16:38:42;16.23;;;2.67;;
19609;SDS011;9952;47.122;-1.638;2022-11-06T16:43:24;20.87;;;4.50;;
19609;SDS011;9952;47.122;-1.638;2022-11-06T16:52:45;17.90;;;3.23;;
19609;SDS011;9952;47.122;-1.638;2022-11-06T17:02:22;19.30;;;2.90;;
19609;SDS011;9952;47.122;-1.638;2022-11-06T17:07:05;18.97;;;2.93;;
19609;SDS011;9952;47.122;-1.638;2022-11-06T17:11:57;17.63;;;3.17;;
19609;SDS011;9952;47.122;-1.638;2022-11-06T17:16:45;17.00;;;2.70;;
19609;SDS011;9952;47.122;-1.638;2022-11-06T17:21:28;19.83;;;3.40;;
19609;SDS011;9952;47.122;-1.638;2022-11-06T17:26:11;16.80;;;2.77;;
19609;SDS011;9952;47.122;-1.638;2022-11-06T17:30:57;19.00;;;3.13;;
19609;SDS011;9952;47.122;-1.638;2022-11-06T17:35:38;20.83;;;2.80;;
19609;SDS011;9952;47.122;-1.638;2022-11-06T17:40:20;18.43;;;2.40;;
19609;SDS011;9952;47.122;-1.638;2022-11-06T17:45:00;17.73;;;2.60;;
19609;SDS011;9952;47.122;-1.638;2022-11-06T17:49:56;17.57;;;2.97;;
19609;SDS011;9952;47.122;-1.638;2022-11-06T17:54:49;21.97;;;3.00;;
19609;SDS011;9952;47.122;-1.638;2022-11-06T17:59:30;20.30;;;3.00;;
19609;SDS011;9952;47.122;-1.638;2022-11-06T18:04:12;17.47;;;3.53;;
19609;SDS011;9952;47.122;-1.638;2022-11-06T18:08:56;17.57;;;2.50;;
19609;SDS011;9952;47.122;-1.638;2022-11-06T18:13:39;21.17;;;3.87;;
19609;SDS011;9952;47.122;-1.638;2022-11-06T18:18:20;20.00;;;3.10;;
19609;SDS011;9952;47.122;-1.638;2022-11-06T18:23:02;26.87;;;3.73;;
19609;SDS011;9952;47.122;-1.638;2022-11-06T18:27:42;24.23;;;3.37;;
19609;SDS011;9952;47.122;-1.638;2022-11-06T18:32:23;19.23;;;3.03;;
19609;SDS011;9952;47.122;-1.638;2022-11-06T18:37:04;17.03;;;3.23;;
19609;SDS011;9952;47.122;-1.638;2022-11-06T18:41:45;25.40;;;3.83;;
19609;SDS011;9952;47.122;-1.638;2022-11-06T18:46:26;25.27;;;3.90;;
19609;SDS011;9952;47.122;-1.638;2022-11-06T18:51:08;21.50;;;3.40;;
19609;SDS011;9952;47.122;-1.638;2022-11-06T18:55:56;21.40;;;3.30;;
19609;SDS011;9952;47.122;-1.638;2022-11-06T19:00:37;24.27;;;3.60;;
19609;SDS011;9952;47.122;-1.638;2022-11-06T19:05:18;20.63;;;2.83;;
19609;SDS011;9952;47.122;-1.638;2022-11-06T19:09:59;25.57;;;4.03;;
19609;SDS011;9952;47.122;-1.638;2022-11-06T19:14:39;26.07;;;4.03;;
19609;SDS011;9952;47.122;-1.638;2022-11-06T19:19:20;21.30;;;3.57;;
19609;SDS011;9952;47.122;-1.638;2022-11-06T19:24:01;25.80;;;4.70;;
19609;SDS011;9952;47.122;-1.638;2022-11-06T19:28:42;20.93;;;3.63;;
19609;SDS011;9952;47.122;-1.638;2022-11-06T19:33:23;22.33;;;4.03;;
19609;SDS011;9952;47.122;-1.638;2022-11-06T19:38:04;21.73;;;3.53;;
19609;SDS011;9952;47.122;-1.638;2022-11-06T19:42:46;26.90;;;4.27;;
19609;SDS011;9952;47.122;-1.638;2022-11-06T19:47:26;23.00;;;3.90;;
19609;SDS011;9952;47.122;-1.638;2022-11-06T19:52:07;16.10;;;2.77;;
19609;SDS011;9952;47.122;-1.638;2022-11-06T19:56:48;23.10;;;3.67;;
19609;SDS011;9952;47.122;-1.638;2022-11-06T20:01:29;21.30;;;3.90;;
19609;SDS011;9952;47.122;-1.638;2022-11-06T20:06:12;20.93;;;3.97;;
19609;SDS011;9952;47.122;-1.638;2022-11-06T20:11:00;21.57;;;3.57;;
19609;SDS011;9952;47.122;-1.638;2022-11-06T20:15:42;30.40;;;4.60;;
19609;SDS011;9952;47.122;-1.638;2022-11-06T20:20:22;25.67;;;3.00;;
19609;SDS011;9952;47.122;-1.638;2022-11-06T20:25:04;27.50;;;4.33;;
19609;SDS011;9952;47.122;-1.638;2022-11-06T20:29:45;26.00;;;4.57;;
19609;SDS011;9952;47.122;-1.638;2022-11-06T20:34:26;21.37;;;3.70;;
19609;SDS011;9952;47.122;-1.638;2022-11-06T20:39:07;22.60;;;3.60;;
19609;SDS011;9952;47.122;-1.638;2022-11-06T20:43:48;27.57;;;3.87;;
19609;SDS011;9952;47.122;-1.638;2022-11-06T20:48:30;28.10;;;4.17;;
19609;SDS011;9952;47.122;-1.638;2022-11-06T20:53:11;23.03;;;3.43;;
19609;SDS011;9952;47.122;-1.638;2022-11-06T20:57:52;28.57;;;4.40;;
19609;SDS011;9952;47.122;-1.638;2022-11-06T21:02:33;24.03;;;3.83;;
19609;SDS011;9952;47.122;-1.638;2022-11-06T21:07:14;22.63;;;3.57;;
19609;SDS011;9952;47.122;-1.638;2022-11-06T21:11:54;20.60;;;3.77;;
19609;SDS011;9952;47.122;-1.638;2022-11-06T21:16:35;22.70;;;3.93;;
19609;SDS011;9952;47.122;-1.638;2022-11-06T21:21:21;30.47;;;4.37;;
19609;SDS011;9952;47.122;-1.638;2022-11-06T21:26:08;28.67;;;4.03;;
19609;SDS011;9952;47.122;-1.638;2022-11-06T21:36:06;23.37;;;4.07;;
19609;SDS011;9952;47.122;-1.638;2022-11-06T21:41:31;28.17;;;4.10;;
19609;SDS011;9952;47.122;-1.638;2022-11-06T21:46:13;27.77;;;4.07;;
19609;SDS011;9952;47.122;-1.638;2022-11-06T21:50:54;21.80;;;4.03;;
19609;SDS011;9952;47.122;-1.638;2022-11-06T21:55:35;21.47;;;4.33;;
19609;SDS011;9952;47.122;-1.638;2022-11-06T22:00:38;21.03;;;3.30;;
19609;SDS011;9952;47.122;-1.638;2022-11-06T22:05:19;20.47;;;3.20;;
19609;SDS011;9952;47.122;-1.638;2022-11-06T22:10:00;29.73;;;4.10;;
19609;SDS011;9952;47.122;-1.638;2022-11-06T22:14:40;29.30;;;4.07;;
19609;SDS011;9952;47.122;-1.638;2022-11-06T22:19:21;20.27;;;3.40;;
19609;SDS011;9952;47.122;-1.638;2022-11-06T22:24:02;21.13;;;3.07;;
19609;SDS011;9952;47.122;-1.638;2022-11-06T22:28:44;20.70;;;3.07;;
19609;SDS011;9952;47.122;-1.638;2022-11-06T22:33:24;27.30;;;4.27;;
19609;SDS011;9952;47.122;-1.638;2022-11-06T22:38:06;24.73;;;3.53;;
19609;SDS011;9952;47.122;-1.638;2022-11-06T22:42:49;24.50;;;3.10;;
19609;SDS011;9952;47.122;-1.638;2022-11-06T22:47:30;16.27;;;3.53;;
19609;SDS011;9952;47.122;-1.638;2022-11-06T22:52:10;20.57;;;3.00;;
19609;SDS011;9952;47.122;-1.638;2022-11-06T22:56:51;18.20;;;2.90;;
19609;SDS011;9952;47.122;-1.638;2022-11-06T23:01:32;23.33;;;3.60;;
19609;SDS011;9952;47.122;-1.638;2022-11-06T23:06:13;22.30;;;3.17;;
19609;SDS011;9952;47.122;-1.638;2022-11-06T23:10:54;22.70;;;4.43;;
19609;SDS011;9952;47.122;-1.638;2022-11-06T23:15:35;23.23;;;3.83;;
19609;SDS011;9952;47.122;-1.638;2022-11-06T23:20:17;24.77;;;3.50;;
19609;SDS011;9952;47.122;-1.638;2022-11-06T23:24:58;28.50;;;3.87;;
19609;SDS011;9952;47.122;-1.638;2022-11-06T23:29:39;31.97;;;5.67;;
19609;SDS011;9952;47.122;-1.638;2022-11-06T23:34:20;32.70;;;4.17;;
19609;SDS011;9952;47.122;-1.638;2022-11-06T23:39:01;25.67;;;3.70;;
19609;SDS011;9952;47.122;-1.638;2022-11-06T23:43:41;20.83;;;3.70;;
19609;SDS011;9952;47.122;-1.638;2022-11-06T23:48:22;33.07;;;4.10;;
19609;SDS011;9952;47.122;-1.638;2022-11-06T23:53:03;24.33;;;3.77;;
19609;SDS011;9952;47.122;-1.638;2022-11-06T23:57:44;25.33;;;3.73;;
